Nullo Mountains, Australia
Current Conditions -  °F | °C
As of 10:00 AM on Thursday 23 Oct 2014 (Local Time) from YMDG Reporting Station
Clear Clear  
Wind Chill: 73°   Ceiling: Unl
Heat Index: 73°   Visibility: NA
Dew Point: 52°   Wind: 1mph
Humidity: 47%   Direction: 20°NNE
Pressure: 30.12"   Gusts: NA
Location:  32.72°S, 150.23°E
Report Text: YMDG 222300Z AUTO 02001KT //// // NCD 23/11 Q1020
Loading
Personal Weather Stations






























Interactive Weather Map
Tropical Storm Tracking
New forecast layout! Learn more

10-Day Weather Forecast

Advertisements
Track Severe Weather on mobile